Weather at Blue Skies Farm Airport

Public forecast

Using degrees Fahrenheit for public forecast. Weather courtesy of forecast.io.

Closest aviation weather report (METAR) to Blue Skies Farm Airport

Closest report is Salem Municipal Airport/McNary Field, 4.8 nm (8.9 km) SW. Retrieved 2021/07/27 06:56 UTC (47 minutes ago):

KSLE 270656Z AUTO 35004KT 10SM CLR 21/11 A2996 RMK AO2 SLP143 T02110106

Closest aviation forecast (TAF) to Blue Skies Farm Airport

Closest forecast is Salem Municipal Airport/McNary Field, 4.8 nm (8.9 km) SW. Retrieved 2021/07/27 06:22 UTC (1 hour ago):

TAF KSLE 270520Z 2706/2806 34009KT P6SM SKC FM270800 36003KT P6SM FEW050 BKN250 FM272100 36009KT P6SM FEW100